createdAt,value
2022-10-24T00:01:27.178Z,5.15
2022-10-24T00:03:54.694Z,5.10
2022-10-24T00:06:22.821Z,5.82
2022-10-24T00:08:50.694Z,5.63
2022-10-24T00:11:24.512Z,4.80
2022-10-24T00:13:54.109Z,5.68
2022-10-24T00:16:21.699Z,5.25
2022-10-24T00:18:49.402Z,6.03
2022-10-24T00:21:17.094Z,5.38
2022-10-24T00:23:44.806Z,4.88
2022-10-24T00:26:13.080Z,5.13
2022-10-24T00:28:41.340Z,5.88
2022-10-24T00:31:12.745Z,5.30
2022-10-24T00:33:40.190Z,5.57
2022-10-24T00:36:13.988Z,5.28
2022-10-24T00:38:41.519Z,5.72
2022-10-24T00:41:15.314Z,5.25
2022-10-24T00:43:42.752Z,5.45
2022-10-24T00:46:10.306Z,5.63
2022-10-24T00:48:42.764Z,4.80
2022-10-24T00:51:18.929Z,6.18
2022-10-24T00:53:50.312Z,4.80
2022-10-24T00:56:20.822Z,5.22
2022-10-24T00:58:49.842Z,5.00
2022-10-24T01:01:17.458Z,5.07
2022-10-24T01:03:44.937Z,4.55
2022-10-24T01:06:45.133Z,4.80
2022-10-24T01:09:38.664Z,4.72
2022-10-24T01:12:31.149Z,5.57
2022-10-24T01:15:18.063Z,4.93
2022-10-24T01:18:01.521Z,5.03
2022-10-24T01:20:46.214Z,5.47
2022-10-24T01:23:32.214Z,5.00
2022-10-24T01:26:17.780Z,5.18
2022-10-24T01:29:08.309Z,5.13
2022-10-24T01:31:58.383Z,5.18
2022-10-24T01:34:46.759Z,5.47
2022-10-24T01:37:21.903Z,4.90
2022-10-24T01:39:55.307Z,5.15
2022-10-24T01:44:56.515Z,4.45
2022-10-24T01:47:29.574Z,5.70
2022-10-24T01:50:04.219Z,6.32
2022-10-24T01:52:34.862Z,4.53
2022-10-24T01:55:02.912Z,5.53
2022-10-24T01:57:32.719Z,5.25
2022-10-24T02:00:00.546Z,4.93
2022-10-24T02:02:37.314Z,4.95
2022-10-24T02:05:40.027Z,5.57
2022-10-24T02:08:12.738Z,5.63
2022-10-24T02:10:50.897Z,5.63
2022-10-24T02:13:34.523Z,5.50
2022-10-24T02:16:03.254Z,5.32
2022-10-24T02:18:32.782Z,6.00
2022-10-24T02:21:12.855Z,5.03
2022-10-24T02:24:08.845Z,6.50
2022-10-24T02:26:52.841Z,5.15
2022-10-24T02:29:27.769Z,5.75
2022-10-24T02:31:58.912Z,5.85
2022-10-24T02:34:32.376Z,5.90
2022-10-24T02:37:01.653Z,5.55
2022-10-24T02:39:30.485Z,5.45
2022-10-24T02:41:58.924Z,5.72
2022-10-24T02:44:29.223Z,4.75
2022-10-24T02:47:01.329Z,5.60
2022-10-24T02:49:28.692Z,5.25
2022-10-24T02:51:56.762Z,5.80
2022-10-24T02:54:24.199Z,5.30
2022-10-24T02:56:56.638Z,6.22
2022-10-24T02:59:24.066Z,4.20
2022-10-24T03:01:51.438Z,6.45
2022-10-24T03:04:18.870Z,4.05
2022-10-24T03:06:46.280Z,7.57
2022-10-24T03:09:13.672Z,6.40
2022-10-24T03:11:41.416Z,6.15
2022-10-24T03:14:08.855Z,6.55
2022-10-24T03:16:36.450Z,5.50
2022-10-24T03:19:03.803Z,5.47
2022-10-24T03:21:31.117Z,5.18
2022-10-24T03:23:58.559Z,6.18
2022-10-24T03:26:25.879Z,6.68
2022-10-24T03:28:53.213Z,6.13
2022-10-24T03:31:20.464Z,4.38
2022-10-24T03:33:47.879Z,4.82
2022-10-24T03:36:15.147Z,6.97
2022-10-24T03:38:42.515Z,6.05
2022-10-24T03:41:09.797Z,6.25
2022-10-24T03:43:37.493Z,7.38
2022-10-24T03:46:04.777Z,5.38
2022-10-24T03:48:32.150Z,6.47
2022-10-24T03:50:59.794Z,5.80
2022-10-24T03:53:27.417Z,6.38
2022-10-24T03:55:57.114Z,5.38
2022-10-24T03:58:25.160Z,6.68
2022-10-24T04:00:52.800Z,5.78
2022-10-24T04:03:20.249Z,7.68
2022-10-24T04:05:47.523Z,6.63
2022-10-24T04:08:15.276Z,4.72
2022-10-24T04:10:42.550Z,5.20
2022-10-24T04:13:10.482Z,6.78
2022-10-24T04:15:37.854Z,6.85
2022-10-24T04:18:05.435Z,5.68
2022-10-24T04:20:32.800Z,5.55
2022-10-24T04:23:02.391Z,6.65
2022-10-24T04:25:31.897Z,8.10
2022-10-24T04:27:59.094Z,8.82
2022-10-24T04:30:26.647Z,6.88
2022-10-24T04:32:53.829Z,9.23
2022-10-24T04:35:21.098Z,6.65
2022-10-24T04:37:48.380Z,6.05
2022-10-24T04:40:15.748Z,8.13
2022-10-24T04:42:43.090Z,9.25
2022-10-24T04:45:10.930Z,8.00
2022-10-24T04:47:38.186Z,6.55
2022-10-24T04:50:06.161Z,5.40
2022-10-24T04:52:33.433Z,6.30
2022-10-24T04:55:00.810Z,5.47
2022-10-24T04:57:28.135Z,6.65
2022-10-24T04:59:55.569Z,7.35
2022-10-24T05:02:23.314Z,7.30
2022-10-24T05:04:50.702Z,7.22
2022-10-24T05:07:20.792Z,6.32
2022-10-24T05:09:48.332Z,6.90
2022-10-24T05:12:15.643Z,8.73
2022-10-24T05:14:43.041Z,6.38
2022-10-24T05:17:10.323Z,7.20
2022-10-24T05:19:37.761Z,7.38
2022-10-24T05:22:07.279Z,8.23
2022-10-24T05:24:37.421Z,7.40
2022-10-24T05:27:04.801Z,9.23
2022-10-24T05:29:32.624Z,10.15
2022-10-24T05:31:59.995Z,8.27
2022-10-24T05:34:27.737Z,11.13
2022-10-24T05:36:55.101Z,10.23
2022-10-24T05:39:22.997Z,7.18
2022-10-24T05:41:54.474Z,7.38
2022-10-24T05:44:22.809Z,8.50
2022-10-24T05:46:50.053Z,8.65
2022-10-24T05:49:17.406Z,5.25
2022-10-24T05:51:44.744Z,8.95
2022-10-24T05:56:44.730Z,6.72
2022-10-24T05:59:11.998Z,8.55
2022-10-24T06:01:39.424Z,5.43
2022-10-24T06:04:08.849Z,5.32
2022-10-24T06:06:42.698Z,7.57
2022-10-24T06:09:12.008Z,9.68
2022-10-24T06:11:39.315Z,7.70
2022-10-24T06:14:06.731Z,6.68
2022-10-24T06:16:34.339Z,6.47
2022-10-24T06:19:01.720Z,6.82
2022-10-24T06:21:29.456Z,10.93
2022-10-24T06:23:57.383Z,5.93
2022-10-24T06:26:24.857Z,6.93
2022-10-24T06:28:52.497Z,9.15
2022-10-24T06:31:20.848Z,7.45
2022-10-24T06:33:48.301Z,9.02
2022-10-24T06:36:15.674Z,6.32
2022-10-24T06:38:43.117Z,5.40
2022-10-24T06:41:12.182Z,6.65
2022-10-24T06:43:41.494Z,9.38
2022-10-24T06:46:14.995Z,5.53
2022-10-24T06:48:42.682Z,6.43
2022-10-24T06:51:10.398Z,7.15
2022-10-24T06:53:37.892Z,12.55
2022-10-24T06:56:06.687Z,7.63
2022-10-24T06:58:35.617Z,6.35
2022-10-24T07:01:21.432Z,6.55
2022-10-24T07:03:49.230Z,7.28
2022-10-24T07:06:25.312Z,6.93
2022-10-24T07:08:54.198Z,350.83
2022-10-24T07:11:21.484Z,202.82
2022-10-24T07:13:49.667Z,57.97
2022-10-24T07:16:17.479Z,513.67
2022-10-24T07:18:45.302Z,507.60
